Time;durP1;ratioP1;P1;durP2;ratioP2;P2;SDS_P1;SDS_P2;PMS_P1;PMS_P2;Temp;Humidity;BMP_temperature;BMP_pressure;BME280_temperature;BME280_humidity;BME280_pressure;Samples;Min_cycle;Max_cycle;Signal;HPM_P1;HPM_P2
2023/03/11 00:00:34;;;;;;;19.65;13.43;;;;;;;-0.98;100.00;99847.94;10231036;28;20736;-73
2023/03/11 00:05:34;;;;;;;21.58;12.90;;;;;;;-0.91;100.00;99855.75;10232512;28;20042;-73
2023/03/11 00:10:34;;;;;;;19.00;12.23;;;;;;;-0.81;100.00;99852.28;10216830;28;20060;-73
2023/03/11 00:15:31;;;;;;;18.75;12.75;;;;;;;-0.79;100.00;99869.78;10225231;28;20144;-74
2023/03/11 00:20:33;;;;;;;18.95;12.90;;;;;;;-0.80;100.00;99881.56;10223188;28;20092;-73
2023/03/11 00:25:31;;;;;;;22.95;15.15;;;;;;;-0.70;100.00;99897.69;10224145;28;20041;-73
2023/03/11 00:30:29;;;;;;;21.38;15.27;;;;;;;-0.77;100.00;99907.88;10230031;28;20041;-74
2023/03/11 00:35:28;;;;;;;19.80;14.57;;;;;;;-0.70;100.00;99919.16;10224548;28;20128;-75
2023/03/11 00:40:27;;;;;;;25.80;15.48;;;;;;;-0.71;100.00;99917.56;10230329;28;20045;-74
2023/03/11 00:45:24;;;;;;;22.50;14.13;;;;;;;-0.77;100.00;99923.97;10222914;28;20575;-74
2023/03/11 00:50:23;;;;;;;22.63;15.13;;;;;;;-0.70;100.00;99939.84;10230095;28;20578;-74
2023/03/11 00:55:31;;;;;;;24.30;17.02;;;;;;;-0.71;100.00;99948.97;10227582;28;20045;-74
2023/03/11 01:00:29;;;;;;;22.08;16.15;;;;;;;-0.71;100.00;99960.53;10228395;28;20046;-74
2023/03/11 01:05:29;;;;;;;24.23;15.55;;;;;;;-0.65;100.00;99970.22;10229639;28;20566;-74
2023/03/11 01:10:28;;;;;;;26.67;16.85;;;;;;;-0.59;100.00;99972.94;10224765;28;20061;-74
2023/03/11 01:15:36;;;;;;;27.13;15.90;;;;;;;-0.60;100.00;99974.81;10223152;28;20499;-74
2023/03/11 01:20:34;;;;;;;21.83;15.07;;;;;;;-0.62;100.00;99986.88;10229185;28;20084;-74
2023/03/11 01:25:30;;;;;;;24.95;15.63;;;;;;;-0.59;100.00;99994.41;10228145;28;20105;-73
2023/03/11 01:30:28;;;;;;;24.85;17.33;;;;;;;-0.66;100.00;100006.19;10227152;28;20061;-74
2023/03/11 01:35:27;;;;;;;24.00;16.80;;;;;;;-0.65;100.00;100012.34;10228147;28;20554;-73
2023/03/11 01:40:31;;;;;;;20.75;14.40;;;;;;;-0.72;100.00;100023.34;10228188;28;20579;-73
2023/03/11 01:45:27;;;;;;;21.95;14.82;;;;;;;-0.70;100.00;100026.56;10225859;28;20052;-73
2023/03/11 01:50:30;;;;;;;23.92;15.30;;;;;;;-0.72;100.00;100033.25;10235340;28;20049;-73
2023/03/11 01:55:27;;;;;;;22.38;15.63;;;;;;;-0.74;100.00;100030.84;10234648;28;20094;-74
2023/03/11 02:00:24;;;;;;;23.17;15.25;;;;;;;-0.78;100.00;100035.13;10223178;28;20078;-73
2023/03/11 02:05:22;;;;;;;15.85;10.40;;;;;;;-0.94;100.00;100041.44;10226379;28;20050;-74
2023/03/11 02:10:19;;;;;;;20.30;13.55;;;;;;;-0.81;100.00;100045.53;10232171;28;20073;-74
2023/03/11 02:15:15;;;;;;;19.25;13.52;;;;;;;-0.87;100.00;100052.78;10232562;28;20116;-73
2023/03/11 02:20:36;;;;;;;22.08;14.30;;;;;;;-0.88;100.00;100068.06;10235301;28;20045;-73
2023/03/11 02:25:41;;;;;;;23.25;14.45;;;;;;;-0.85;100.00;100080.16;10218444;28;20050;-74
2023/03/11 02:30:40;;;;;;;23.48;15.93;;;;;;;-0.86;100.00;100091.94;10235182;28;20047;-73
2023/03/11 02:35:37;;;;;;;23.17;13.77;;;;;;;-0.89;100.00;100104.00;10229998;28;20514;-74
2023/03/11 02:40:54;;;;;;;22.52;13.98;;;;;;;-0.92;100.00;100125.19;10233886;28;20053;-73
2023/03/11 02:45:51;;;;;;;21.33;14.93;;;;;;;-0.96;100.00;100129.47;10230129;28;20041;-73
2023/03/11 02:50:47;;;;;;;20.50;13.38;;;;;;;-1.08;100.00;100133.09;10232783;28;20048;-74
2023/03/11 02:55:43;;;;;;;24.10;12.75;;;;;;;-1.18;100.00;100143.75;10227563;28;20580;-73
2023/03/11 03:00:40;;;;;;;22.15;13.55;;;;;;;-1.12;100.00;100148.09;10222110;28;20053;-74
2023/03/11 03:05:37;;;;;;;22.55;14.95;;;;;;;-1.19;100.00;100155.53;10230680;28;20049;-73
2023/03/11 03:10:33;;;;;;;23.30;15.43;;;;;;;-1.32;100.00;100166.69;10220797;28;20051;-73
2023/03/11 03:15:29;;;;;;;20.98;14.15;;;;;;;-1.22;100.00;100166.78;10224044;28;20048;-73
2023/03/11 03:20:26;;;;;;;19.23;13.68;;;;;;;-1.22;100.00;100180.19;10226960;28;20049;-73
2023/03/11 03:25:22;;;;;;;16.95;12.77;;;;;;;-1.28;100.00;100189.25;10216036;28;20444;-72
2023/03/11 03:30:19;;;;;;;16.23;12.32;;;;;;;-1.23;100.00;100193.84;10222746;28;20100;-72
2023/03/11 03:35:16;;;;;;;24.10;13.00;;;;;;;-1.20;100.00;100210.25;10221175;28;20652;-72
2023/03/11 03:40:12;;;;;;;17.40;12.73;;;;;;;-1.25;100.00;100217.44;10229734;28;20489;-71
2023/03/11 03:45:09;;;;;;;16.45;12.30;;;;;;;-1.25;100.00;100229.00;10223329;28;20140;-71
2023/03/11 03:50:08;;;;;;;17.67;12.02;;;;;;;-1.26;100.00;100230.03;10230078;28;20136;-71
2023/03/11 03:55:05;;;;;;;18.58;13.52;;;;;;;-1.23;100.00;100248.34;10224771;28;20526;-71
2023/03/11 04:00:03;;;;;;;16.40;11.70;;;;;;;-1.32;100.00;100252.53;10228007;28;20077;-73
2023/03/11 04:05:00;;;;;;;19.00;13.45;;;;;;;-1.21;100.00;100264.16;10223704;28;20060;-73
2023/03/11 04:09:56;;;;;;;18.38;12.05;;;;;;;-1.26;100.00;100267.59;10226301;28;20085;-73
2023/03/11 04:14:53;;;;;;;17.48;11.68;;;;;;;-1.17;100.00;100273.34;10221550;28;20891;-73
2023/03/11 04:19:49;;;;;;;16.33;11.63;;;;;;;-1.04;100.00;100266.75;10221931;28;20059;-72
2023/03/11 04:24:46;;;;;;;16.73;12.68;;;;;;;-1.15;100.00;100272.03;10225371;28;20056;-72
2023/03/11 04:29:42;;;;;;;15.77;11.85;;;;;;;-1.17;100.00;100278.69;10223243;28;20072;-72
2023/03/11 04:34:39;;;;;;;17.13;11.57;;;;;;;-1.26;100.00;100272.97;10228646;28;20046;-72
2023/03/11 04:39:35;;;;;;;18.33;12.88;;;;;;;-1.33;100.00;100269.66;10222905;28;20520;-72
2023/03/11 04:44:34;;;;;;;18.75;12.18;;;;;;;-1.43;100.00;100280.28;10226474;28;20055;-72
2023/03/11 04:49:30;;;;;;;19.42;13.15;;;;;;;-1.45;100.00;100291.22;10223604;28;20056;-72
2023/03/11 04:54:27;;;;;;;19.13;13.20;;;;;;;-1.45;100.00;100287.75;10225413;28;20141;-72
2023/03/11 04:59:23;;;;;;;17.90;13.70;;;;;;;-1.41;100.00;100297.72;10227531;28;20073;-72
2023/03/11 05:04:20;;;;;;;18.77;12.73;;;;;;;-1.48;100.00;100311.31;10222881;28;20119;-72
2023/03/11 05:09:17;;;;;;;19.00;12.57;;;;;;;-1.56;100.00;100322.44;10228696;28;20111;-72
2023/03/11 05:14:13;;;;;;;18.65;13.15;;;;;;;-1.49;100.00;100323.09;10228951;28;20053;-74
2023/03/11 05:24:25;;;;;;;19.77;13.73;;;;;;;-1.61;100.00;100359.91;10234386;28;20038;-72
2023/03/11 05:29:22;;;;;;;20.17;13.15;;;;;;;-1.67;100.00;100360.91;10231483;28;20487;-72
2023/03/11 05:34:19;;;;;;;21.02;12.82;;;;;;;-1.73;100.00;100372.59;10227189;28;20048;-73
2023/03/11 05:39:15;;;;;;;17.73;12.25;;;;;;;-1.92;100.00;100383.56;10229664;28;20111;-73
2023/03/11 05:44:13;;;;;;;18.98;12.32;;;;;;;-2.01;100.00;100398.44;10228147;28;20052;-72
2023/03/11 05:49:09;;;;;;;19.15;13.20;;;;;;;-1.94;100.00;100399.06;10227592;28;20457;-72
2023/03/11 05:54:13;;;;;;;20.63;13.55;;;;;;;-1.93;100.00;100411.44;10229059;28;20136;-72
2023/03/11 05:59:14;;;;;;;21.48;12.98;;;;;;;-1.96;100.00;100417.25;10234734;28;20041;-74
2023/03/11 06:04:12;;;;;;;18.45;13.50;;;;;;;-2.03;100.00;100416.59;10233371;28;20064;-75
2023/03/11 06:09:13;;;;;;;20.25;13.73;;;;;;;-2.18;100.00;100429.72;10235173;28;20049;-75
2023/03/11 06:14:13;;;;;;;18.38;13.10;;;;;;;-2.10;100.00;100436.56;10228000;28;20051;-75
2023/03/11 06:19:10;;;;;;;16.40;12.55;;;;;;;-2.13;100.00;100440.56;10235334;28;20046;-74
2023/03/11 06:24:06;;;;;;;15.95;10.60;;;;;;;-2.24;100.00;100452.13;10234959;28;20132;-74
2023/03/11 06:29:03;;;;;;;16.77;12.05;;;;;;;-2.23;100.00;100451.88;10227379;28;20045;-74
2023/03/11 06:33:59;;;;;;;17.00;12.02;;;;;;;-2.13;100.00;100460.09;10223930;28;20049;-74
2023/03/11 06:38:56;;;;;;;14.73;12.15;;;;;;;-2.16;100.00;100465.94;10225580;28;20469;-74
2023/03/11 06:43:52;;;;;;;18.95;12.60;;;;;;;-2.18;100.00;100475.25;10230442;28;20412;-72
2023/03/11 06:48:52;;;;;;;16.15;13.45;;;;;;;-2.13;100.00;100486.91;10224491;28;20065;-72
2023/03/11 06:53:51;;;;;;;14.27;11.10;;;;;;;-2.13;100.00;100502.16;10228319;28;20045;-73
2023/03/11 06:58:48;;;;;;;16.77;12.40;;;;;;;-2.09;100.00;100505.97;10226446;28;20073;-74
2023/03/11 07:03:45;;;;;;;20.75;12.82;;;;;;;-2.00;100.00;100512.56;10227619;28;20643;-74
2023/03/11 07:08:42;;;;;;;15.95;11.95;;;;;;;-2.01;100.00;100515.50;10217947;28;20046;-74
2023/03/11 07:13:38;;;;;;;17.15;12.05;;;;;;;-2.01;100.00;100526.22;10231790;28;20055;-74
2023/03/11 07:18:35;;;;;;;18.38;12.13;;;;;;;-1.96;100.00;100535.16;10221499;28;20586;-74
2023/03/11 07:23:32;;;;;;;16.33;11.30;;;;;;;-1.98;100.00;100545.31;10229924;28;20104;-74
2023/03/11 07:28:29;;;;;;;14.35;10.60;;;;;;;-1.82;100.00;100550.97;10229680;28;20411;-74
2023/03/11 07:33:26;;;;;;;14.30;10.95;;;;;;;-1.79;100.00;100553.16;10220573;28;20045;-74
2023/03/11 07:38:22;;;;;;;14.85;11.85;;;;;;;-1.73;100.00;100562.94;10222584;28;20046;-73
2023/03/11 07:43:19;;;;;;;16.77;11.40;;;;;;;-1.62;100.00;100578.16;10231676;28;20125;-74
2023/03/11 07:48:16;;;;;;;13.98;11.20;;;;;;;-1.59;100.00;100583.03;10225204;28;20112;-73
2023/03/11 07:53:13;;;;;;;15.57;11.07;;;;;;;-1.51;100.00;100585.34;10228006;28;20084;-74
2023/03/11 07:58:10;;;;;;;13.45;11.00;;;;;;;-1.41;100.00;100594.63;10230207;28;20041;-73
2023/03/11 08:03:06;;;;;;;15.23;10.88;;;;;;;-1.34;100.00;100600.63;10230155;28;20478;-74
2023/03/11 08:08:03;;;;;;;20.48;11.75;;;;;;;-1.29;100.00;100609.56;10223989;28;20044;-73
2023/03/11 08:12:59;;;;;;;18.15;11.38;;;;;;;-1.27;100.00;100617.38;10227400;28;20053;-73
2023/03/11 08:17:55;;;;;;;12.50;9.98;;;;;;;-1.17;100.00;100632.84;10228692;28;20518;-73
2023/03/11 08:22:52;;;;;;;13.10;9.10;;;;;;;-1.13;100.00;100645.53;10230559;28;20045;-73
2023/03/11 08:27:55;;;;;;;12.82;9.55;;;;;;;-1.02;100.00;100645.69;10226856;28;20529;-73
2023/03/11 08:32:51;;;;;;;10.82;7.97;;;;;;;-0.96;100.00;100660.84;10221911;28;20076;-74
2023/03/11 08:37:48;;;;;;;9.98;8.15;;;;;;;-0.94;100.00;100653.38;10225588;28;20041;-74
2023/03/11 08:42:44;;;;;;;13.40;8.32;;;;;;;-0.88;100.00;100657.78;10227108;28;20065;-74
2023/03/11 08:47:41;;;;;;;10.05;8.20;;;;;;;-0.81;100.00;100663.78;10225783;28;20121;-74
2023/03/11 08:52:37;;;;;;;9.95;7.60;;;;;;;-0.75;100.00;100673.53;10221770;28;20045;-74
2023/03/11 08:57:34;;;;;;;8.90;6.40;;;;;;;-0.73;100.00;100676.81;10223310;28;20042;-74
2023/03/11 09:02:30;;;;;;;10.15;7.43;;;;;;;-0.60;100.00;100681.06;10224262;28;20172;-74
2023/03/11 09:07:27;;;;;;;10.25;6.80;;;;;;;-0.40;100.00;100685.91;10218147;28;20095;-73
2023/03/11 09:12:23;;;;;;;9.50;7.78;;;;;;;-0.36;100.00;100679.00;10225358;28;20084;-74
2023/03/11 09:17:19;;;;;;;8.95;7.47;;;;;;;-0.33;100.00;100681.19;10225623;28;20500;-74
2023/03/11 09:22:16;;;;;;;9.35;7.35;;;;;;;-0.08;100.00;100685.31;10226691;28;20041;-73
2023/03/11 09:27:14;;;;;;;7.85;6.30;;;;;;;0.09;100.00;100693.31;10228673;28;20045;-73
2023/03/11 09:32:14;;;;;;;7.95;5.90;;;;;;;0.13;100.00;100687.19;10227871;28;20051;-73
2023/03/11 09:37:11;;;;;;;9.27;6.05;;;;;;;0.14;100.00;100691.53;10229100;28;20049;-73
2023/03/11 09:42:27;;;;;;;8.85;6.45;;;;;;;0.53;100.00;100699.50;10227525;28;20055;-73
2023/03/11 09:47:37;;;;;;;9.07;5.90;;;;;;;0.55;100.00;100702.78;10225338;28;20396;-73
2023/03/11 09:52:58;;;;;;;6.47;5.53;;;;;;;0.97;100.00;100712.91;10222872;28;20061;-72
2023/03/11 09:57:57;;;;;;;8.90;5.22;;;;;;;0.99;100.00;100697.31;10227561;28;20125;-73
2023/03/11 10:02:54;;;;;;;6.35;4.43;;;;;;;1.04;100.00;100702.78;10233786;28;20567;-72
2023/03/11 10:07:59;;;;;;;8.43;5.15;;;;;;;0.84;100.00;100708.75;10234743;28;20049;-73
2023/03/11 10:13:18;;;;;;;6.65;4.82;;;;;;;1.19;100.00;100706.69;10235352;28;20432;-73
2023/03/11 10:18:36;;;;;;;8.85;5.00;;;;;;;2.03;100.00;100716.72;10228247;28;20046;-73
2023/03/11 10:24:14;;;;;;;10.43;5.90;;;;;;;2.57;100.00;100714.84;10230359;28;20108;-73
2023/03/11 10:29:17;;;;;;;7.18;5.63;;;;;;;2.73;100.00;100711.91;10230001;28;20423;-73
2023/03/11 10:34:31;;;;;;;6.15;5.20;;;;;;;2.54;100.00;100705.38;10227329;28;20092;-73
2023/03/11 10:39:28;;;;;;;6.50;4.88;;;;;;;2.77;100.00;100714.91;10230512;28;20116;-74
2023/03/11 10:44:31;;;;;;;8.45;4.80;;;;;;;2.97;100.00;100716.84;10233592;28;20041;-73
2023/03/11 10:49:28;;;;;;;8.05;4.90;;;;;;;3.31;100.00;100702.84;10225865;28;20125;-74
2023/03/11 10:54:25;;;;;;;9.10;5.47;;;;;;;3.04;100.00;100703.06;10233002;28;20056;-73
2023/03/11 10:59:25;;;;;;;8.70;5.20;;;;;;;2.63;100.00;100714.59;10230302;28;20475;-73
2023/03/11 11:04:26;;;;;;;7.93;4.50;;;;;;;2.84;100.00;100722.75;10234536;28;20052;-73
2023/03/11 11:09:24;;;;;;;7.20;4.65;;;;;;;3.74;100.00;100716.91;10229255;28;20095;-74
2023/03/11 11:14:22;;;;;;;7.78;5.20;;;;;;;4.05;100.00;100722.25;10227285;28;20053;-74
2023/03/11 11:19:18;;;;;;;11.07;5.90;;;;;;;3.71;100.00;100717.44;10232685;28;20414;-73
2023/03/11 11:24:24;;;;;;;9.57;5.93;;;;;;;3.59;100.00;100723.13;10223613;28;20045;-74
2023/03/11 11:29:20;;;;;;;7.45;5.05;;;;;;;3.51;100.00;100723.66;10232821;28;20042;-74
2023/03/11 11:34:26;;;;;;;8.00;5.95;;;;;;;3.78;100.00;100723.38;10224630;28;20068;-74
2023/03/11 11:39:25;;;;;;;5.90;5.00;;;;;;;3.73;100.00;100709.84;10228015;28;20128;-74
2023/03/11 11:44:29;;;;;;;8.38;5.15;;;;;;;4.10;100.00;100714.13;10226548;28;20750;-75
2023/03/11 11:49:33;;;;;;;9.75;4.95;;;;;;;4.70;100.00;100698.72;10226771;28;20551;-74
2023/03/11 11:54:37;;;;;;;8.90;5.30;;;;;;;4.73;100.00;100690.03;10226156;28;20562;-74
2023/03/11 11:59:34;;;;;;;5.78;5.07;;;;;;;5.07;100.00;100690.09;10227442;28;20073;-75
2023/03/11 12:04:37;;;;;;;6.25;4.57;;;;;;;5.01;100.00;100679.59;10220865;28;20166;-74
2023/03/11 12:10:05;;;;;;;8.85;5.20;;;;;;;4.72;100.00;100691.16;10230278;28;20141;-73
2023/03/11 12:15:28;;;;;;;7.13;4.60;;;;;;;3.92;100.00;100692.00;10223230;28;20049;-73
2023/03/11 12:20:35;;;;;;;9.57;5.35;;;;;;;4.25;100.00;100689.72;10231526;28;20072;-74
2023/03/11 12:25:39;;;;;;;6.38;5.63;;;;;;;6.27;100.00;100672.50;10220087;28;20049;-74
2023/03/11 12:30:42;;;;;;;9.02;4.80;;;;;;;8.14;100.00;100663.53;10226317;28;20055;-75
2023/03/11 12:35:46;;;;;;;9.43;4.60;;;;;;;7.43;100.00;100664.88;10227542;28;20492;-75
2023/03/11 12:40:45;;;;;;;6.95;5.10;;;;;;;6.02;100.00;100668.97;10229223;28;20048;-75
2023/03/11 12:45:49;;;;;;;4.70;4.20;;;;;;;6.31;100.00;100673.50;10216005;28;20042;-74
2023/03/11 12:50:46;;;;;;;11.63;4.20;;;;;;;5.64;100.00;100668.78;10230167;28;20132;-75
2023/03/11 12:56:00;;;;;;;6.53;4.38;;;;;;;5.18;100.00;100680.03;10229481;28;20052;-75
2023/03/11 13:01:12;;;;;;;5.40;4.50;;;;;;;5.14;100.00;100673.53;10224913;28;20061;-75
2023/03/11 13:06:51;;;;;;;11.25;4.80;;;;;;;5.82;100.00;100671.84;10226067;28;20100;-75
2023/03/11 13:11:48;;;;;;;6.78;4.43;;;;;;;5.04;100.00;100679.03;10229177;28;20065;-74
2023/03/11 13:16:45;;;;;;;4.63;3.60;;;;;;;4.94;100.00;100687.22;10217141;28;20121;-75
2023/03/11 13:21:42;;;;;;;5.70;4.35;;;;;;;4.46;100.00;100684.25;10225298;28;20038;-75
2023/03/11 13:26:45;;;;;;;5.28;4.07;;;;;;;4.88;100.00;100685.66;10218120;28;20044;-75
2023/03/11 13:31:47;;;;;;;4.85;3.90;;;;;;;6.35;100.00;100682.69;10221638;28;20434;-75
2023/03/11 13:37:19;;;;;;;6.03;4.35;;;;;;;8.04;100.00;100680.09;10228223;28;20132;-75
2023/03/11 13:42:38;;;;;;;9.18;5.22;;;;;;;6.84;100.00;100689.66;10236831;28;20080;-75
2023/03/11 13:47:40;;;;;;;6.93;5.07;;;;;;;8.43;100.00;100678.81;10237730;28;20046;-75
2023/03/11 13:52:43;;;;;;;5.67;5.17;;;;;;;6.49;100.00;100689.03;10226577;28;20041;-76
2023/03/11 13:57:54;;;;;;;8.32;5.10;;;;;;;6.86;100.00;100682.03;10231765;28;20553;-76
2023/03/11 14:02:55;;;;;;;6.93;5.10;;;;;;;6.26;100.00;100692.59;10233429;28;20065;-76
2023/03/11 14:07:52;;;;;;;4.90;4.25;;;;;;;5.86;100.00;100700.03;10226857;28;20053;-75
2023/03/11 14:13:19;;;;;;;5.13;4.47;;;;;;;5.25;100.00;100702.19;10230330;28;20550;-76
2023/03/11 14:19:02;;;;;;;8.38;4.38;;;;;;;5.93;100.00;100703.22;10242076;28;20033;-76
2023/03/11 14:23:59;;;;;;;4.95;4.32;;;;;;;6.33;100.00;100693.03;10247155;28;20053;-70
2023/03/11 14:29:09;;;;;;;6.88;4.10;;;;;;;7.05;100.00;100697.53;10222825;28;20050;-76
2023/03/11 14:34:08;;;;;;;5.40;4.00;;;;;;;7.75;100.00;100689.34;10227943;28;20049;-75
2023/03/11 14:39:20;;;;;;;7.97;4.15;;;;;;;7.91;100.00;100699.94;10234097;28;20038;-76
2023/03/11 14:44:17;;;;;;;7.57;5.35;;;;;;;8.63;100.00;100708.38;10220583;28;20491;-75
2023/03/11 14:49:21;;;;;;;6.25;4.05;;;;;;;6.74;100.00;100708.84;10218976;28;20154;-77
2023/03/11 14:54:24;;;;;;;9.02;4.60;;;;;;;5.63;100.00;100713.28;10234106;28;20483;-77
2023/03/11 14:59:31;;;;;;;8.48;4.07;;;;;;;5.30;100.00;100719.53;10226743;28;20033;-77
2023/03/11 15:04:36;;;;;;;7.80;4.28;;;;;;;5.07;100.00;100713.69;10226645;28;20675;-75
2023/03/11 15:09:39;;;;;;;5.03;4.53;;;;;;;4.87;100.00;100711.09;10232904;28;20283;-77
2023/03/11 15:14:48;;;;;;;5.65;4.45;;;;;;;4.93;100.00;100716.22;10249922;28;20055;-75
2023/03/11 15:19:47;;;;;;;6.75;4.43;;;;;;;4.72;100.00;100715.53;10228923;28;20067;-76
2023/03/11 15:24:49;;;;;;;5.93;4.30;;;;;;;4.73;100.00;100710.91;10222184;28;20045;-76
2023/03/11 15:29:51;;;;;;;8.38;4.50;;;;;;;4.59;100.00;100711.50;10221766;28;20037;-75
2023/03/11 15:35:03;;;;;;;4.95;4.20;;;;;;;4.49;100.00;100694.50;10224738;28;20518;-76
2023/03/11 15:40:11;;;;;;;8.05;4.65;;;;;;;4.41;100.00;100698.63;10231051;28;20061;-76
2023/03/11 15:45:15;;;;;;;7.70;4.60;;;;;;;4.59;100.00;100705.28;10228876;28;20160;-75
2023/03/11 15:50:14;;;;;;;5.32;4.55;;;;;;;4.36;100.00;100696.75;10229004;28;20037;-76
2023/03/11 15:55:21;;;;;;;6.47;5.38;;;;;;;4.42;100.00;100711.84;10229792;28;20054;-76
2023/03/11 16:00:21;;;;;;;9.82;5.90;;;;;;;4.11;100.00;100737.41;10232286;28;20052;-76
2023/03/11 16:05:20;;;;;;;5.53;5.00;;;;;;;2.64;100.00;100781.00;10222622;28;20637;-76
2023/03/11 16:10:20;;;;;;;9.43;5.10;;;;;;;1.70;100.00;100776.38;10223206;28;20042;-75
2023/03/11 16:15:27;;;;;;;8.05;5.10;;;;;;;1.86;100.00;100797.78;10227942;28;20118;-75
2023/03/11 16:20:26;;;;;;;10.07;4.53;;;;;;;2.10;100.00;100800.13;10224518;28;20128;-75
2023/03/11 16:25:26;;;;;;;7.57;4.32;;;;;;;2.23;100.00;100791.59;10224817;28;20049;-75
2023/03/11 16:30:24;;;;;;;8.15;4.93;;;;;;;2.06;100.00;100801.69;10224357;28;20053;-75
2023/03/11 16:35:21;;;;;;;9.20;4.90;;;;;;;1.96;100.00;100812.44;10221183;28;20055;-74
2023/03/11 16:40:21;;;;;;;6.95;4.47;;;;;;;1.86;100.00;100819.38;10223440;28;20092;-74
2023/03/11 16:45:17;;;;;;;9.20;5.47;;;;;;;1.79;100.00;100813.38;10214344;28;20053;-74
2023/03/11 16:50:14;;;;;;;7.50;5.60;;;;;;;1.74;100.00;100844.84;10218634;28;20053;-75
2023/03/11 16:55:12;;;;;;;7.07;6.10;;;;;;;1.69;100.00;100845.63;10229099;28;20060;-75
2023/03/11 17:00:09;;;;;;;7.78;5.68;;;;;;;1.61;100.00;100848.78;10231052;28;20052;-74
2023/03/11 17:05:07;;;;;;;14.35;6.15;;;;;;;1.42;100.00;100845.63;10225093;28;20068;-75
2023/03/11 17:10:04;;;;;;;11.07;6.43;;;;;;;1.38;100.00;100847.19;10220069;28;20580;-75
2023/03/11 17:15:01;;;;;;;11.35;6.25;;;;;;;1.31;100.00;100850.09;10217003;28;20141;-75
2023/03/11 17:19:57;;;;;;;10.93;6.53;;;;;;;1.27;100.00;100843.56;10222182;28;20692;-75
2023/03/11 17:24:53;;;;;;;10.77;6.60;;;;;;;1.16;100.00;100848.06;10224202;28;20622;-75
2023/03/11 17:29:50;;;;;;;7.90;7.10;;;;;;;1.12;100.00;100863.06;10226118;28;20543;-75
2023/03/11 17:34:46;;;;;;;10.18;7.50;;;;;;;1.10;100.00;100867.09;10227466;28;20041;-75
2023/03/11 17:39:43;;;;;;;8.95;7.10;;;;;;;1.02;100.00;100863.78;10229568;28;20036;-76
2023/03/11 17:44:39;;;;;;;9.15;7.53;;;;;;;0.97;100.00;100863.69;10228672;28;20056;-75
2023/03/11 17:49:48;;;;;;;9.05;6.78;;;;;;;0.88;100.00;100873.25;10215229;28;20041;-75
2023/03/11 17:54:44;;;;;;;7.65;6.53;;;;;;;0.85;100.00;100868.38;10226852;28;20065;-75
2023/03/11 17:59:40;;;;;;;10.15;7.15;;;;;;;0.83;100.00;100875.88;10225111;28;20042;-75
2023/03/11 18:04:38;;;;;;;7.88;7.07;;;;;;;0.81;100.00;100883.41;10220836;28;20511;-74
2023/03/11 18:09:34;;;;;;;8.15;6.47;;;;;;;0.77;100.00;100882.28;10221609;28;20065;-74
2023/03/11 18:14:31;;;;;;;8.32;6.05;;;;;;;0.76;100.00;100886.03;10220641;28;20076;-75
2023/03/11 18:19:27;;;;;;;9.00;6.63;;;;;;;0.74;100.00;100874.69;10223430;28;20129;-75
2023/03/11 18:24:24;;;;;;;8.18;6.80;;;;;;;0.70;100.00;100884.34;10231238;28;20507;-75
2023/03/11 18:29:20;;;;;;;9.50;7.20;;;;;;;0.66;100.00;100888.59;10233903;28;20045;-75
2023/03/11 18:34:17;;;;;;;43.17;8.65;;;;;;;0.66;100.00;100881.31;10231733;28;20096;-75
2023/03/11 18:39:13;;;;;;;9.40;6.50;;;;;;;0.65;100.00;100890.47;10232473;28;20069;-75
2023/03/11 18:44:11;;;;;;;7.50;6.85;;;;;;;0.63;100.00;100893.41;10260590;28;20069;-75
2023/03/11 18:49:11;;;;;;;8.45;6.70;;;;;;;0.63;100.00;100892.59;10221891;28;20052;-75
2023/03/11 18:54:08;;;;;;;8.60;6.72;;;;;;;0.63;100.00;100888.03;10233161;28;20121;-75
2023/03/11 18:59:06;;;;;;;7.47;6.43;;;;;;;0.60;100.00;100885.81;10220960;28;20128;-75
2023/03/11 19:04:03;;;;;;;6.97;6.03;;;;;;;0.58;100.00;100885.25;10224562;28;20045;-76
2023/03/11 19:08:59;;;;;;;8.60;6.43;;;;;;;0.54;100.00;100894.88;10211147;28;20438;-76
2023/03/11 19:13:56;;;;;;;7.38;6.57;;;;;;;0.53;100.00;100895.91;10228341;28;20442;-75
2023/03/11 19:18:54;;;;;;;8.07;6.35;;;;;;;0.50;100.00;100909.06;10228813;28;20641;-76
2023/03/11 19:23:53;;;;;;;8.55;6.50;;;;;;;0.46;100.00;100887.22;10226820;28;20369;-76
2023/03/11 19:28:50;;;;;;;7.38;6.32;;;;;;;0.45;100.00;100895.53;10219857;28;20674;-76
2023/03/11 19:33:49;;;;;;;8.65;6.00;;;;;;;0.39;100.00;100900.00;10225846;28;20076;-77
2023/03/11 19:38:46;;;;;;;8.40;6.25;;;;;;;0.44;100.00;100902.78;10225140;28;20071;-76
2023/03/11 19:43:44;;;;;;;8.18;6.20;;;;;;;0.44;100.00;100904.66;10228270;28;20526;-77
2023/03/11 19:48:41;;;;;;;8.98;6.93;;;;;;;0.48;100.00;100911.19;10218350;28;20045;-76
2023/03/11 19:53:39;;;;;;;7.25;6.60;;;;;;;0.51;100.00;100916.91;10221133;28;20049;-76
2023/03/11 19:58:36;;;;;;;8.48;6.60;;;;;;;0.58;100.00;100932.84;10225674;28;20046;-76
2023/03/11 20:03:33;;;;;;;7.22;6.13;;;;;;;0.66;100.00;100931.66;10219788;28;20049;-76
2023/03/11 20:08:35;;;;;;;9.98;6.10;;;;;;;0.77;100.00;100930.75;10227398;28;20037;-76
2023/03/11 20:13:35;;;;;;;10.07;5.80;;;;;;;0.79;100.00;100939.34;10218180;28;20136;-76
2023/03/11 20:18:34;;;;;;;9.88;5.50;;;;;;;0.88;100.00;100937.88;10227552;28;20499;-77
2023/03/11 20:23:31;;;;;;;8.55;5.10;;;;;;;0.94;100.00;100925.31;10228908;28;20037;-77
2023/03/11 20:28:28;;;;;;;9.70;5.20;;;;;;;0.90;100.00;100930.38;10248480;28;20049;-76
2023/03/11 20:33:25;;;;;;;6.22;5.00;;;;;;;0.97;100.00;100931.00;10215837;28;20141;-77
2023/03/11 20:38:22;;;;;;;8.05;5.38;;;;;;;0.99;100.00;100934.25;10239313;28;20496;-76
2023/03/11 20:43:19;;;;;;;5.80;4.65;;;;;;;0.99;100.00;100928.88;10223854;28;20065;-77
2023/03/11 20:48:18;;;;;;;5.90;4.57;;;;;;;1.03;100.00;100935.41;10219273;28;20731;-76
2023/03/11 20:53:15;;;;;;;5.38;4.80;;;;;;;0.99;100.00;100945.03;10227558;28;20077;-77
2023/03/11 20:58:12;;;;;;;9.30;5.65;;;;;;;1.07;100.00;100941.13;10223022;28;20073;-77
2023/03/11 21:03:08;;;;;;;6.63;5.30;;;;;;;1.03;100.00;100940.78;10225701;28;20132;-76
2023/03/11 21:08:06;;;;;;;10.38;5.00;;;;;;;1.08;100.00;100944.63;10224535;28;20060;-76
2023/03/11 21:13:03;;;;;;;13.75;5.82;;;;;;;1.09;100.00;100943.53;10217490;28;20053;-77
2023/03/11 21:18:00;;;;;;;6.18;5.40;;;;;;;1.10;100.00;100947.88;10225212;28;20053;-77
2023/03/11 21:22:57;;;;;;;7.15;5.57;;;;;;;1.16;100.00;100954.94;10223650;28;20046;-77
2023/03/11 21:27:53;;;;;;;7.85;4.80;;;;;;;1.24;100.00;100968.00;10239913;28;20049;-77
2023/03/11 21:32:49;;;;;;;8.55;4.57;;;;;;;1.17;100.00;100973.56;10211890;28;20463;-77
2023/03/11 21:37:46;;;;;;;7.18;4.75;;;;;;;1.08;100.00;100966.16;10217200;28;20056;-70
2023/03/11 21:42:43;;;;;;;11.73;5.60;;;;;;;1.07;100.00;100972.59;10213484;28;20056;-71
2023/03/11 21:47:39;;;;;;;6.07;4.95;;;;;;;1.02;100.00;100976.88;10216554;28;20607;-71
2023/03/11 21:52:36;;;;;;;9.20;5.70;;;;;;;0.90;100.00;100989.59;10219204;28;20533;-69
2023/03/11 21:57:32;;;;;;;9.02;5.60;;;;;;;1.04;100.00;100985.53;10229416;28;20084;-70
2023/03/11 22:02:29;;;;;;;6.68;5.18;;;;;;;1.03;100.00;100983.88;10229380;28;20545;-70
2023/03/11 22:07:25;;;;;;;9.75;5.53;;;;;;;1.04;100.00;100990.06;10223807;28;20056;-71
2023/03/11 22:12:22;;;;;;;7.45;5.40;;;;;;;1.05;100.00;100992.53;10230959;28;20049;-71
2023/03/11 22:17:19;;;;;;;8.00;5.28;;;;;;;1.01;100.00;100990.56;10232096;28;20084;-70
2023/03/11 22:22:15;;;;;;;5.93;4.68;;;;;;;0.97;100.00;100995.63;10231667;28;20076;-70
2023/03/11 22:27:15;;;;;;;11.35;5.65;;;;;;;0.96;100.00;100994.00;10230198;28;20041;-69
2023/03/11 22:32:11;;;;;;;8.45;6.05;;;;;;;0.92;100.00;100982.09;10232071;28;20052;-70
2023/03/11 22:37:08;;;;;;;6.88;5.50;;;;;;;0.89;100.00;100982.59;10228048;28;20103;-70
2023/03/11 22:42:05;;;;;;;10.60;6.05;;;;;;;0.75;100.00;100981.31;10229743;28;20055;-70